sensor_id;sensor_type;location;lat;lon;timestamp;P1;durP1;ratioP1;P2;durP2;ratioP2
14268;SDS011;7218;51.480;7.006;2024-01-30T00:00:41;8.00;;;5.20;;
14268;SDS011;7218;51.480;7.006;2024-01-30T00:03:09;9.30;;;5.07;;
14268;SDS011;7218;51.480;7.006;2024-01-30T00:05:35;10.02;;;5.07;;
14268;SDS011;7218;51.480;7.006;2024-01-30T00:08:03;8.68;;;5.40;;
14268;SDS011;7218;51.480;7.006;2024-01-30T00:10:31;9.98;;;5.25;;
14268;SDS011;7218;51.480;7.006;2024-01-30T00:12:58;8.90;;;5.28;;
14268;SDS011;7218;51.480;7.006;2024-01-30T00:15:25;6.80;;;5.22;;
14268;SDS011;7218;51.480;7.006;2024-01-30T00:17:51;7.95;;;5.20;;
14268;SDS011;7218;51.480;7.006;2024-01-30T00:20:19;8.07;;;5.63;;
14268;SDS011;7218;51.480;7.006;2024-01-30T00:22:46;6.85;;;5.18;;
14268;SDS011;7218;51.480;7.006;2024-01-30T00:25:13;10.07;;;5.47;;
14268;SDS011;7218;51.480;7.006;2024-01-30T00:27:39;7.63;;;5.28;;
14268;SDS011;7218;51.480;7.006;2024-01-30T00:30:06;6.78;;;5.10;;
14268;SDS011;7218;51.480;7.006;2024-01-30T00:32:33;8.88;;;5.25;;
14268;SDS011;7218;51.480;7.006;2024-01-30T00:35:00;6.22;;;4.97;;
14268;SDS011;7218;51.480;7.006;2024-01-30T00:37:28;7.55;;;5.13;;
14268;SDS011;7218;51.480;7.006;2024-01-30T00:39:54;7.45;;;5.38;;
14268;SDS011;7218;51.480;7.006;2024-01-30T00:42:21;8.93;;;5.32;;
14268;SDS011;7218;51.480;7.006;2024-01-30T00:44:49;7.47;;;5.03;;
14268;SDS011;7218;51.480;7.006;2024-01-30T00:47:15;8.32;;;5.80;;
14268;SDS011;7218;51.480;7.006;2024-01-30T00:49:42;7.93;;;5.20;;
14268;SDS011;7218;51.480;7.006;2024-01-30T00:52:09;10.13;;;5.32;;
14268;SDS011;7218;51.480;7.006;2024-01-30T00:54:36;7.57;;;5.50;;
14268;SDS011;7218;51.480;7.006;2024-01-30T00:57:03;6.82;;;5.10;;
14268;SDS011;7218;51.480;7.006;2024-01-30T00:59:30;6.50;;;5.32;;
14268;SDS011;7218;51.480;7.006;2024-01-30T01:01:56;7.28;;;5.40;;
14268;SDS011;7218;51.480;7.006;2024-01-30T01:04:23;6.72;;;5.40;;
14268;SDS011;7218;51.480;7.006;2024-01-30T01:06:58;7.63;;;5.20;;
14268;SDS011;7218;51.480;7.006;2024-01-30T01:09:24;9.98;;;5.47;;
14268;SDS011;7218;51.480;7.006;2024-01-30T01:11:53;7.05;;;5.32;;
14268;SDS011;7218;51.480;7.006;2024-01-30T01:14:19;7.55;;;5.25;;
14268;SDS011;7218;51.480;7.006;2024-01-30T01:16:45;8.25;;;5.78;;
14268;SDS011;7218;51.480;7.006;2024-01-30T01:19:12;10.90;;;5.93;;
14268;SDS011;7218;51.480;7.006;2024-01-30T01:21:38;8.52;;;5.53;;
14268;SDS011;7218;51.480;7.006;2024-01-30T01:24:05;8.25;;;5.75;;
14268;SDS011;7218;51.480;7.006;2024-01-30T01:26:31;8.18;;;5.45;;
14268;SDS011;7218;51.480;7.006;2024-01-30T01:28:59;7.72;;;5.65;;
14268;SDS011;7218;51.480;7.006;2024-01-30T01:31:26;7.97;;;5.50;;
14268;SDS011;7218;51.480;7.006;2024-01-30T01:33:54;10.38;;;6.20;;
14268;SDS011;7218;51.480;7.006;2024-01-30T01:36:21;8.80;;;5.70;;
14268;SDS011;7218;51.480;7.006;2024-01-30T01:38:47;7.22;;;5.05;;
14268;SDS011;7218;51.480;7.006;2024-01-30T01:41:14;8.27;;;5.60;;
14268;SDS011;7218;51.480;7.006;2024-01-30T01:43:41;6.90;;;5.47;;
14268;SDS011;7218;51.480;7.006;2024-01-30T01:46:09;7.97;;;5.45;;
14268;SDS011;7218;51.480;7.006;2024-01-30T01:48:36;7.90;;;5.70;;
14268;SDS011;7218;51.480;7.006;2024-01-30T01:51:04;10.55;;;5.57;;
14268;SDS011;7218;51.480;7.006;2024-01-30T01:53:31;7.97;;;5.82;;
14268;SDS011;7218;51.480;7.006;2024-01-30T01:55:58;11.55;;;5.63;;
14268;SDS011;7218;51.480;7.006;2024-01-30T01:58:25;9.13;;;5.45;;
14268;SDS011;7218;51.480;7.006;2024-01-30T02:00:54;8.85;;;5.53;;
14268;SDS011;7218;51.480;7.006;2024-01-30T02:03:23;8.40;;;5.45;;
14268;SDS011;7218;51.480;7.006;2024-01-30T02:05:50;7.75;;;5.10;;
14268;SDS011;7218;51.480;7.006;2024-01-30T02:08:17;8.68;;;5.38;;
14268;SDS011;7218;51.480;7.006;2024-01-30T02:10:44;11.52;;;5.72;;
14268;SDS011;7218;51.480;7.006;2024-01-30T02:13:10;7.88;;;5.55;;
14268;SDS011;7218;51.480;7.006;2024-01-30T02:15:37;7.32;;;5.40;;
14268;SDS011;7218;51.480;7.006;2024-01-30T02:18:03;8.30;;;5.40;;
14268;SDS011;7218;51.480;7.006;2024-01-30T02:20:31;7.82;;;5.32;;
14268;SDS011;7218;51.480;7.006;2024-01-30T02:23:03;8.25;;;4.88;;
14268;SDS011;7218;51.480;7.006;2024-01-30T02:25:31;8.25;;;5.93;;
14268;SDS011;7218;51.480;7.006;2024-01-30T02:27:59;7.53;;;5.43;;
14268;SDS011;7218;51.480;7.006;2024-01-30T02:30:25;9.32;;;5.35;;
14268;SDS011;7218;51.480;7.006;2024-01-30T02:32:52;8.10;;;5.13;;
14268;SDS011;7218;51.480;7.006;2024-01-30T02:35:18;6.43;;;4.85;;
14268;SDS011;7218;51.480;7.006;2024-01-30T02:37:45;8.55;;;4.80;;
14268;SDS011;7218;51.480;7.006;2024-01-30T02:40:13;8.23;;;5.18;;
14268;SDS011;7218;51.480;7.006;2024-01-30T02:42:39;5.80;;;4.88;;
14268;SDS011;7218;51.480;7.006;2024-01-30T02:45:07;8.43;;;5.07;;
14268;SDS011;7218;51.480;7.006;2024-01-30T02:47:34;7.00;;;4.63;;
14268;SDS011;7218;51.480;7.006;2024-01-30T02:50:00;7.65;;;5.10;;
14268;SDS011;7218;51.480;7.006;2024-01-30T02:52:27;8.02;;;4.95;;
14268;SDS011;7218;51.480;7.006;2024-01-30T02:54:53;7.50;;;5.00;;
14268;SDS011;7218;51.480;7.006;2024-01-30T02:57:21;5.85;;;4.65;;
14268;SDS011;7218;51.480;7.006;2024-01-30T02:59:48;7.68;;;5.03;;
14268;SDS011;7218;51.480;7.006;2024-01-30T03:02:14;7.38;;;5.05;;
14268;SDS011;7218;51.480;7.006;2024-01-30T03:04:41;7.63;;;4.60;;
14268;SDS011;7218;51.480;7.006;2024-01-30T03:07:07;7.40;;;4.70;;
14268;SDS011;7218;51.480;7.006;2024-01-30T03:09:34;9.02;;;4.88;;
14268;SDS011;7218;51.480;7.006;2024-01-30T03:12:00;7.60;;;5.00;;
14268;SDS011;7218;51.480;7.006;2024-01-30T03:14:28;8.23;;;5.30;;
14268;SDS011;7218;51.480;7.006;2024-01-30T03:16:55;7.05;;;4.65;;
14268;SDS011;7218;51.480;7.006;2024-01-30T03:19:22;7.07;;;5.03;;
14268;SDS011;7218;51.480;7.006;2024-01-30T03:21:48;6.75;;;4.80;;
14268;SDS011;7218;51.480;7.006;2024-01-30T03:24:15;7.30;;;4.90;;
14268;SDS011;7218;51.480;7.006;2024-01-30T03:26:42;7.65;;;4.68;;
14268;SDS011;7218;51.480;7.006;2024-01-30T03:29:08;8.30;;;4.47;;
14268;SDS011;7218;51.480;7.006;2024-01-30T03:31:36;7.88;;;5.00;;
14268;SDS011;7218;51.480;7.006;2024-01-30T03:34:03;7.50;;;4.40;;
14268;SDS011;7218;51.480;7.006;2024-01-30T03:36:29;6.85;;;4.65;;
14268;SDS011;7218;51.480;7.006;2024-01-30T03:38:57;8.68;;;4.75;;
14268;SDS011;7218;51.480;7.006;2024-01-30T03:41:24;8.57;;;4.70;;
14268;SDS011;7218;51.480;7.006;2024-01-30T03:43:50;10.32;;;4.55;;
14268;SDS011;7218;51.480;7.006;2024-01-30T03:46:17;6.07;;;4.40;;
14268;SDS011;7218;51.480;7.006;2024-01-30T03:48:45;5.95;;;4.40;;
14268;SDS011;7218;51.480;7.006;2024-01-30T03:51:12;5.10;;;4.18;;
14268;SDS011;7218;51.480;7.006;2024-01-30T03:53:39;8.18;;;4.38;;
14268;SDS011;7218;51.480;7.006;2024-01-30T03:56:06;6.80;;;4.40;;
14268;SDS011;7218;51.480;7.006;2024-01-30T03:58:33;6.15;;;4.32;;
14268;SDS011;7218;51.480;7.006;2024-01-30T04:00:59;6.13;;;3.92;;
14268;SDS011;7218;51.480;7.006;2024-01-30T04:03:25;6.32;;;4.40;;
14268;SDS011;7218;51.480;7.006;2024-01-30T04:05:53;6.60;;;4.32;;
14268;SDS011;7218;51.480;7.006;2024-01-30T04:08:20;7.93;;;4.68;;
14268;SDS011;7218;51.480;7.006;2024-01-30T04:10:47;5.68;;;4.55;;
14268;SDS011;7218;51.480;7.006;2024-01-30T04:13:13;9.00;;;4.38;;
14268;SDS011;7218;51.480;7.006;2024-01-30T04:15:40;7.55;;;4.55;;
14268;SDS011;7218;51.480;7.006;2024-01-30T04:18:06;7.47;;;4.43;;
14268;SDS011;7218;51.480;7.006;2024-01-30T04:20:33;7.30;;;4.25;;
14268;SDS011;7218;51.480;7.006;2024-01-30T04:23:00;5.38;;;4.05;;
14268;SDS011;7218;51.480;7.006;2024-01-30T04:25:27;6.25;;;4.32;;
14268;SDS011;7218;51.480;7.006;2024-01-30T04:27:53;6.47;;;4.40;;
14268;SDS011;7218;51.480;7.006;2024-01-30T04:30:20;7.22;;;4.20;;
14268;SDS011;7218;51.480;7.006;2024-01-30T04:32:46;6.55;;;4.70;;
14268;SDS011;7218;51.480;7.006;2024-01-30T04:35:13;6.72;;;4.78;;
14268;SDS011;7218;51.480;7.006;2024-01-30T04:37:39;8.65;;;4.80;;
14268;SDS011;7218;51.480;7.006;2024-01-30T04:40:07;6.80;;;5.35;;
14268;SDS011;7218;51.480;7.006;2024-01-30T04:42:34;9.18;;;6.13;;
14268;SDS011;7218;51.480;7.006;2024-01-30T04:45:01;7.93;;;6.28;;
14268;SDS011;7218;51.480;7.006;2024-01-30T04:47:27;9.90;;;6.93;;
14268;SDS011;7218;51.480;7.006;2024-01-30T04:49:54;10.40;;;7.28;;
14268;SDS011;7218;51.480;7.006;2024-01-30T04:52:21;12.80;;;8.30;;
14268;SDS011;7218;51.480;7.006;2024-01-30T04:54:47;11.70;;;8.43;;
14268;SDS011;7218;51.480;7.006;2024-01-30T04:57:15;14.27;;;8.90;;
14268;SDS011;7218;51.480;7.006;2024-01-30T04:59:41;17.40;;;9.25;;
14268;SDS011;7218;51.480;7.006;2024-01-30T05:02:08;16.00;;;10.45;;
14268;SDS011;7218;51.480;7.006;2024-01-30T05:04:35;15.80;;;9.52;;
14268;SDS011;7218;51.480;7.006;2024-01-30T05:07:01;16.42;;;9.73;;
14268;SDS011;7218;51.480;7.006;2024-01-30T05:09:27;17.60;;;10.05;;
14268;SDS011;7218;51.480;7.006;2024-01-30T05:11:54;14.23;;;9.73;;
14268;SDS011;7218;51.480;7.006;2024-01-30T05:14:22;19.02;;;10.52;;
14268;SDS011;7218;51.480;7.006;2024-01-30T05:16:48;18.25;;;10.65;;
14268;SDS011;7218;51.480;7.006;2024-01-30T05:19:15;15.93;;;9.80;;
14268;SDS011;7218;51.480;7.006;2024-01-30T05:21:42;15.57;;;9.60;;
14268;SDS011;7218;51.480;7.006;2024-01-30T05:24:08;17.00;;;9.23;;
14268;SDS011;7218;51.480;7.006;2024-01-30T05:26:35;15.68;;;9.65;;
14268;SDS011;7218;51.480;7.006;2024-01-30T05:29:01;15.93;;;9.00;;
14268;SDS011;7218;51.480;7.006;2024-01-30T05:31:29;14.63;;;8.05;;
14268;SDS011;7218;51.480;7.006;2024-01-30T05:33:56;14.27;;;7.65;;
14268;SDS011;7218;51.480;7.006;2024-01-30T05:36:23;15.82;;;7.82;;
14268;SDS011;7218;51.480;7.006;2024-01-30T05:38:59;12.68;;;7.65;;
14268;SDS011;7218;51.480;7.006;2024-01-30T05:41:26;12.30;;;7.10;;
14268;SDS011;7218;51.480;7.006;2024-01-30T05:43:52;11.93;;;7.53;;
14268;SDS011;7218;51.480;7.006;2024-01-30T05:46:19;10.88;;;7.28;;
14268;SDS011;7218;51.480;7.006;2024-01-30T05:48:47;13.10;;;7.00;;
14268;SDS011;7218;51.480;7.006;2024-01-30T05:51:13;11.70;;;6.78;;
14268;SDS011;7218;51.480;7.006;2024-01-30T05:53:40;13.48;;;6.75;;
14268;SDS011;7218;51.480;7.006;2024-01-30T05:56:06;10.25;;;6.53;;
14268;SDS011;7218;51.480;7.006;2024-01-30T05:58:33;8.40;;;5.72;;
14268;SDS011;7218;51.480;7.006;2024-01-30T06:01:00;10.20;;;6.20;;
14268;SDS011;7218;51.480;7.006;2024-01-30T06:03:26;9.48;;;6.18;;
14268;SDS011;7218;51.480;7.006;2024-01-30T06:05:55;9.93;;;5.57;;
14268;SDS011;7218;51.480;7.006;2024-01-30T06:08:21;8.70;;;6.28;;
14268;SDS011;7218;51.480;7.006;2024-01-30T06:10:48;10.75;;;5.72;;
14268;SDS011;7218;51.480;7.006;2024-01-30T06:13:14;9.90;;;5.72;;
14268;SDS011;7218;51.480;7.006;2024-01-30T06:15:41;6.97;;;5.20;;
14268;SDS011;7218;51.480;7.006;2024-01-30T06:18:07;8.70;;;5.25;;
14268;SDS011;7218;51.480;7.006;2024-01-30T06:20:34;6.63;;;4.97;;
14268;SDS011;7218;51.480;7.006;2024-01-30T06:23:02;10.77;;;5.07;;
14268;SDS011;7218;51.480;7.006;2024-01-30T06:25:29;8.10;;;4.57;;
14268;SDS011;7218;51.480;7.006;2024-01-30T06:27:56;8.05;;;4.82;;
14268;SDS011;7218;51.480;7.006;2024-01-30T06:30:22;7.68;;;4.97;;
14268;SDS011;7218;51.480;7.006;2024-01-30T06:32:49;11.05;;;4.72;;
14268;SDS011;7218;51.480;7.006;2024-01-30T06:35:15;7.78;;;4.65;;
14268;SDS011;7218;51.480;7.006;2024-01-30T06:37:42;6.80;;;4.63;;
14268;SDS011;7218;51.480;7.006;2024-01-30T06:40:11;10.93;;;4.68;;
14268;SDS011;7218;51.480;7.006;2024-01-30T06:42:38;6.28;;;4.90;;
14268;SDS011;7218;51.480;7.006;2024-01-30T06:45:04;6.28;;;4.35;;
14268;SDS011;7218;51.480;7.006;2024-01-30T06:47:33;9.35;;;4.78;;
14268;SDS011;7218;51.480;7.006;2024-01-30T06:49:59;9.13;;;4.68;;
14268;SDS011;7218;51.480;7.006;2024-01-30T06:52:27;7.93;;;4.15;;
14268;SDS011;7218;51.480;7.006;2024-01-30T06:54:53;9.25;;;4.32;;
14268;SDS011;7218;51.480;7.006;2024-01-30T06:57:21;7.32;;;4.50;;
14268;SDS011;7218;51.480;7.006;2024-01-30T06:59:48;6.43;;;4.68;;
14268;SDS011;7218;51.480;7.006;2024-01-30T07:02:14;6.97;;;5.13;;
14268;SDS011;7218;51.480;7.006;2024-01-30T07:04:41;7.35;;;5.03;;
14268;SDS011;7218;51.480;7.006;2024-01-30T07:07:07;8.20;;;4.75;;
14268;SDS011;7218;51.480;7.006;2024-01-30T07:09:37;7.25;;;4.50;;
14268;SDS011;7218;51.480;7.006;2024-01-30T07:12:04;7.88;;;4.78;;
14268;SDS011;7218;51.480;7.006;2024-01-30T07:14:32;5.63;;;4.32;;
14268;SDS011;7218;51.480;7.006;2024-01-30T07:16:59;5.28;;;4.35;;
14268;SDS011;7218;51.480;7.006;2024-01-30T07:19:25;6.57;;;4.20;;
14268;SDS011;7218;51.480;7.006;2024-01-30T07:21:52;8.13;;;4.40;;
14268;SDS011;7218;51.480;7.006;2024-01-30T07:24:18;6.82;;;4.60;;
14268;SDS011;7218;51.480;7.006;2024-01-30T07:26:45;7.65;;;4.60;;
14268;SDS011;7218;51.480;7.006;2024-01-30T07:29:11;7.93;;;4.60;;
14268;SDS011;7218;51.480;7.006;2024-01-30T07:31:39;7.32;;;4.47;;
14268;SDS011;7218;51.480;7.006;2024-01-30T07:34:06;7.70;;;4.53;;
14268;SDS011;7218;51.480;7.006;2024-01-30T07:36:32;7.47;;;4.30;;
14268;SDS011;7218;51.480;7.006;2024-01-30T07:38:59;5.63;;;4.18;;
14268;SDS011;7218;51.480;7.006;2024-01-30T07:41:25;6.57;;;4.32;;
14268;SDS011;7218;51.480;7.006;2024-01-30T07:43:52;7.40;;;4.43;;
14268;SDS011;7218;51.480;7.006;2024-01-30T07:46:18;7.82;;;4.30;;
14268;SDS011;7218;51.480;7.006;2024-01-30T07:48:46;8.00;;;4.72;;
14268;SDS011;7218;51.480;7.006;2024-01-30T07:51:13;7.97;;;4.70;;
14268;SDS011;7218;51.480;7.006;2024-01-30T07:53:40;6.55;;;4.68;;
14268;SDS011;7218;51.480;7.006;2024-01-30T07:56:07;6.07;;;4.70;;
14268;SDS011;7218;51.480;7.006;2024-01-30T07:58:33;7.68;;;4.40;;
14268;SDS011;7218;51.480;7.006;2024-01-30T08:01:00;7.18;;;5.20;;
14268;SDS011;7218;51.480;7.006;2024-01-30T08:03:26;6.65;;;4.35;;
14268;SDS011;7218;51.480;7.006;2024-01-30T08:05:54;6.70;;;4.30;;
14268;SDS011;7218;51.480;7.006;2024-01-30T08:08:21;6.30;;;4.70;;
14268;SDS011;7218;51.480;7.006;2024-01-30T08:10:47;8.05;;;4.93;;
14268;SDS011;7218;51.480;7.006;2024-01-30T08:13:14;5.82;;;4.70;;
14268;SDS011;7218;51.480;7.006;2024-01-30T08:15:41;7.30;;;4.85;;
14268;SDS011;7218;51.480;7.006;2024-01-30T08:18:07;7.82;;;4.72;;
14268;SDS011;7218;51.480;7.006;2024-01-30T08:20:34;7.68;;;5.20;;
14268;SDS011;7218;51.480;7.006;2024-01-30T08:23:02;7.15;;;4.78;;
14268;SDS011;7218;51.480;7.006;2024-01-30T08:25:28;7.55;;;4.97;;
14268;SDS011;7218;51.480;7.006;2024-01-30T08:27:55;8.05;;;4.85;;
14268;SDS011;7218;51.480;7.006;2024-01-30T08:30:22;8.82;;;5.10;;
14268;SDS011;7218;51.480;7.006;2024-01-30T08:32:48;6.95;;;5.15;;
14268;SDS011;7218;51.480;7.006;2024-01-30T08:35:15;6.95;;;4.57;;
14268;SDS011;7218;51.480;7.006;2024-01-30T08:37:41;6.15;;;4.72;;
14268;SDS011;7218;51.480;7.006;2024-01-30T08:40:10;9.05;;;5.07;;
14268;SDS011;7218;51.480;7.006;2024-01-30T08:42:36;8.25;;;4.90;;
14268;SDS011;7218;51.480;7.006;2024-01-30T08:45:04;8.52;;;5.10;;
14268;SDS011;7218;51.480;7.006;2024-01-30T08:47:31;7.32;;;4.85;;
14268;SDS011;7218;51.480;7.006;2024-01-30T08:49:58;9.88;;;5.05;;
14268;SDS011;7218;51.480;7.006;2024-01-30T08:52:24;7.30;;;4.88;;
14268;SDS011;7218;51.480;7.006;2024-01-30T08:54:51;8.65;;;5.30;;
14268;SDS011;7218;51.480;7.006;2024-01-30T08:57:19;8.20;;;5.15;;
14268;SDS011;7218;51.480;7.006;2024-01-30T08:59:45;8.43;;;5.63;;
14268;SDS011;7218;51.480;7.006;2024-01-30T09:02:13;6.95;;;5.03;;
14268;SDS011;7218;51.480;7.006;2024-01-30T09:04:41;7.18;;;5.00;;
14268;SDS011;7218;51.480;7.006;2024-01-30T09:07:08;8.13;;;4.50;;
14268;SDS011;7218;51.480;7.006;2024-01-30T09:09:35;6.65;;;5.15;;
14268;SDS011;7218;51.480;7.006;2024-01-30T09:12:04;11.90;;;5.20;;
14268;SDS011;7218;51.480;7.006;2024-01-30T09:14:35;7.40;;;4.57;;
14268;SDS011;7218;51.480;7.006;2024-01-30T09:17:02;6.68;;;5.05;;
14268;SDS011;7218;51.480;7.006;2024-01-30T09:19:29;8.43;;;5.07;;
14268;SDS011;7218;51.480;7.006;2024-01-30T09:21:56;6.80;;;5.05;;
14268;SDS011;7218;51.480;7.006;2024-01-30T09:24:22;7.38;;;5.10;;
14268;SDS011;7218;51.480;7.006;2024-01-30T09:26:49;8.07;;;4.95;;
14268;SDS011;7218;51.480;7.006;2024-01-30T09:29:15;7.50;;;4.88;;
14268;SDS011;7218;51.480;7.006;2024-01-30T09:31:44;10.07;;;4.97;;
14268;SDS011;7218;51.480;7.006;2024-01-30T09:34:11;7.70;;;4.80;;
14268;SDS011;7218;51.480;7.006;2024-01-30T09:36:37;11.68;;;5.45;;
14268;SDS011;7218;51.480;7.006;2024-01-30T09:39:05;11.75;;;5.00;;
14268;SDS011;7218;51.480;7.006;2024-01-30T09:41:32;7.88;;;4.68;;
14268;SDS011;7218;51.480;7.006;2024-01-30T09:44:01;7.82;;;5.00;;
14268;SDS011;7218;51.480;7.006;2024-01-30T09:46:28;9.15;;;5.07;;
14268;SDS011;7218;51.480;7.006;2024-01-30T09:48:59;7.60;;;5.03;;
14268;SDS011;7218;51.480;7.006;2024-01-30T09:51:28;8.02;;;4.80;;
14268;SDS011;7218;51.480;7.006;2024-01-30T09:53:56;10.70;;;5.05;;
14268;SDS011;7218;51.480;7.006;2024-01-30T09:56:22;8.23;;;4.97;;
14268;SDS011;7218;51.480;7.006;2024-01-30T09:58:49;7.35;;;4.90;;
14268;SDS011;7218;51.480;7.006;2024-01-30T10:01:15;7.10;;;4.60;;
14268;SDS011;7218;51.480;7.006;2024-01-30T10:03:44;7.85;;;4.47;;
14268;SDS011;7218;51.480;7.006;2024-01-30T10:06:12;6.13;;;4.82;;
14268;SDS011;7218;51.480;7.006;2024-01-30T10:08:38;6.97;;;4.20;;
14268;SDS011;7218;51.480;7.006;2024-01-30T10:11:05;7.40;;;4.60;;
14268;SDS011;7218;51.480;7.006;2024-01-30T10:13:32;8.18;;;4.50;;
14268;SDS011;7218;51.480;7.006;2024-01-30T10:15:58;8.43;;;4.53;;
14268;SDS011;7218;51.480;7.006;2024-01-30T10:18:27;7.30;;;4.53;;
14268;SDS011;7218;51.480;7.006;2024-01-30T10:20:54;7.65;;;4.60;;
14268;SDS011;7218;51.480;7.006;2024-01-30T10:23:22;7.18;;;4.43;;
14268;SDS011;7218;51.480;7.006;2024-01-30T10:25:49;6.93;;;4.25;;
14268;SDS011;7218;51.480;7.006;2024-01-30T10:28:17;8.77;;;4.15;;
14268;SDS011;7218;51.480;7.006;2024-01-30T10:30:43;5.32;;;3.95;;
14268;SDS011;7218;51.480;7.006;2024-01-30T10:33:10;7.93;;;4.00;;
14268;SDS011;7218;51.480;7.006;2024-01-30T10:35:36;9.73;;;4.18;;
14268;SDS011;7218;51.480;7.006;2024-01-30T10:38:03;7.78;;;4.78;;
14268;SDS011;7218;51.480;7.006;2024-01-30T10:40:35;7.40;;;4.30;;
14268;SDS011;7218;51.480;7.006;2024-01-30T10:43:03;6.70;;;4.40;;
14268;SDS011;7218;51.480;7.006;2024-01-30T10:45:32;6.55;;;4.53;;
14268;SDS011;7218;51.480;7.006;2024-01-30T10:48:01;6.70;;;4.80;;
14268;SDS011;7218;51.480;7.006;2024-01-30T10:50:31;7.38;;;4.88;;
14268;SDS011;7218;51.480;7.006;2024-01-30T10:53:00;7.80;;;4.63;;
14268;SDS011;7218;51.480;7.006;2024-01-30T10:55:28;8.60;;;4.60;;
14268;SDS011;7218;51.480;7.006;2024-01-30T10:57:57;10.80;;;5.03;;
14268;SDS011;7218;51.480;7.006;2024-01-30T11:00:24;7.93;;;4.90;;
14268;SDS011;7218;51.480;7.006;2024-01-30T11:02:51;6.50;;;4.70;;
14268;SDS011;7218;51.480;7.006;2024-01-30T11:05:23;10.93;;;4.55;;
14268;SDS011;7218;51.480;7.006;2024-01-30T11:07:51;10.18;;;5.22;;
14268;SDS011;7218;51.480;7.006;2024-01-30T11:10:18;8.98;;;4.72;;
14268;SDS011;7218;51.480;7.006;2024-01-30T11:12:45;9.70;;;4.70;;
14268;SDS011;7218;51.480;7.006;2024-01-30T11:15:14;8.55;;;5.05;;
14268;SDS011;7218;51.480;7.006;2024-01-30T11:17:42;8.85;;;4.63;;
14268;SDS011;7218;51.480;7.006;2024-01-30T11:20:16;6.75;;;4.78;;
14268;SDS011;7218;51.480;7.006;2024-01-30T11:22:45;7.13;;;5.03;;
14268;SDS011;7218;51.480;7.006;2024-01-30T11:25:13;8.52;;;5.00;;
14268;SDS011;7218;51.480;7.006;2024-01-30T11:27:41;9.25;;;5.00;;
14268;SDS011;7218;51.480;7.006;2024-01-30T11:30:09;7.55;;;4.40;;
14268;SDS011;7218;51.480;7.006;2024-01-30T11:32:37;7.68;;;5.15;;
14268;SDS011;7218;51.480;7.006;2024-01-30T11:35:04;8.52;;;5.10;;
14268;SDS011;7218;51.480;7.006;2024-01-30T11:37:33;7.95;;;4.93;;
14268;SDS011;7218;51.480;7.006;2024-01-30T11:40:03;8.65;;;5.10;;
14268;SDS011;7218;51.480;7.006;2024-01-30T11:42:30;7.28;;;4.80;;
14268;SDS011;7218;51.480;7.006;2024-01-30T11:44:59;7.93;;;4.90;;
14268;SDS011;7218;51.480;7.006;2024-01-30T11:47:26;7.20;;;4.72;;
14268;SDS011;7218;51.480;7.006;2024-01-30T11:49:54;10.02;;;5.40;;
14268;SDS011;7218;51.480;7.006;2024-01-30T11:52:20;10.07;;;5.28;;
14268;SDS011;7218;51.480;7.006;2024-01-30T11:54:47;9.25;;;5.00;;
14268;SDS011;7218;51.480;7.006;2024-01-30T11:57:13;8.23;;;5.00;;
14268;SDS011;7218;51.480;7.006;2024-01-30T11:59:40;9.13;;;5.00;;
14268;SDS011;7218;51.480;7.006;2024-01-30T12:02:06;9.60;;;5.32;;
14268;SDS011;7218;51.480;7.006;2024-01-30T12:04:33;8.60;;;5.60;;
14268;SDS011;7218;51.480;7.006;2024-01-30T12:07:00;9.07;;;5.90;;
14268;SDS011;7218;51.480;7.006;2024-01-30T12:09:28;8.55;;;5.50;;
14268;SDS011;7218;51.480;7.006;2024-01-30T12:11:54;8.43;;;5.28;;
14268;SDS011;7218;51.480;7.006;2024-01-30T12:14:22;13.40;;;5.72;;
14268;SDS011;7218;51.480;7.006;2024-01-30T12:16:50;7.72;;;5.07;;
14268;SDS011;7218;51.480;7.006;2024-01-30T12:19:22;9.93;;;6.10;;
14268;SDS011;7218;51.480;7.006;2024-01-30T12:21:53;13.68;;;5.45;;
14268;SDS011;7218;51.480;7.006;2024-01-30T12:24:22;12.80;;;6.03;;
14268;SDS011;7218;51.480;7.006;2024-01-30T12:26:49;10.82;;;5.40;;
14268;SDS011;7218;51.480;7.006;2024-01-30T12:29:16;10.20;;;5.57;;
14268;SDS011;7218;51.480;7.006;2024-01-30T12:31:43;11.10;;;5.38;;
14268;SDS011;7218;51.480;7.006;2024-01-30T12:34:09;9.98;;;5.60;;
14268;SDS011;7218;51.480;7.006;2024-01-30T12:36:40;11.18;;;5.55;;
14268;SDS011;7218;51.480;7.006;2024-01-30T12:39:10;12.13;;;5.82;;
14268;SDS011;7218;51.480;7.006;2024-01-30T12:41:38;10.73;;;5.63;;
14268;SDS011;7218;51.480;7.006;2024-01-30T12:44:05;10.68;;;5.78;;
14268;SDS011;7218;51.480;7.006;2024-01-30T12:46:33;12.27;;;5.68;;
14268;SDS011;7218;51.480;7.006;2024-01-30T12:49:00;13.10;;;5.88;;
14268;SDS011;7218;51.480;7.006;2024-01-30T12:51:26;8.68;;;5.45;;
14268;SDS011;7218;51.480;7.006;2024-01-30T12:53:53;10.20;;;5.63;;
14268;SDS011;7218;51.480;7.006;2024-01-30T12:56:19;11.02;;;6.25;;
14268;SDS011;7218;51.480;7.006;2024-01-30T12:58:47;14.55;;;6.03;;
14268;SDS011;7218;51.480;7.006;2024-01-30T13:01:14;8.60;;;5.20;;
14268;SDS011;7218;51.480;7.006;2024-01-30T13:03:41;14.15;;;6.00;;
14268;SDS011;7218;51.480;7.006;2024-01-30T13:06:07;10.50;;;6.10;;
14268;SDS011;7218;51.480;7.006;2024-01-30T13:08:34;12.43;;;5.95;;
14268;SDS011;7218;51.480;7.006;2024-01-30T13:11:00;11.68;;;6.03;;
14268;SDS011;7218;51.480;7.006;2024-01-30T13:13:27;11.68;;;6.00;;
14268;SDS011;7218;51.480;7.006;2024-01-30T13:15:54;9.68;;;5.80;;
14268;SDS011;7218;51.480;7.006;2024-01-30T13:18:21;9.98;;;6.10;;
14268;SDS011;7218;51.480;7.006;2024-01-30T13:20:47;15.52;;;6.20;;
14268;SDS011;7218;51.480;7.006;2024-01-30T13:23:14;12.95;;;5.97;;
14268;SDS011;7218;51.480;7.006;2024-01-30T13:25:40;10.63;;;6.00;;
14268;SDS011;7218;51.480;7.006;2024-01-30T13:28:07;12.13;;;6.03;;
14268;SDS011;7218;51.480;7.006;2024-01-30T13:30:33;10.45;;;6.43;;
14268;SDS011;7218;51.480;7.006;2024-01-30T13:33:01;12.13;;;5.90;;
14268;SDS011;7218;51.480;7.006;2024-01-30T13:35:28;10.30;;;5.63;;
14268;SDS011;7218;51.480;7.006;2024-01-30T13:37:54;11.68;;;5.93;;
14268;SDS011;7218;51.480;7.006;2024-01-30T13:40:21;9.65;;;6.00;;
14268;SDS011;7218;51.480;7.006;2024-01-30T13:42:48;11.40;;;6.50;;
14268;SDS011;7218;51.480;7.006;2024-01-30T13:45:14;11.20;;;6.57;;
14268;SDS011;7218;51.480;7.006;2024-01-30T13:47:41;12.43;;;6.45;;
14268;SDS011;7218;51.480;7.006;2024-01-30T13:50:09;10.77;;;6.57;;
14268;SDS011;7218;51.480;7.006;2024-01-30T13:52:40;10.00;;;6.05;;
14268;SDS011;7218;51.480;7.006;2024-01-30T13:55:06;11.10;;;6.68;;
14268;SDS011;7218;51.480;7.006;2024-01-30T13:57:33;11.63;;;6.78;;
14268;SDS011;7218;51.480;7.006;2024-01-30T14:00:01;12.02;;;6.05;;
14268;SDS011;7218;51.480;7.006;2024-01-30T14:02:30;14.60;;;6.25;;
14268;SDS011;7218;51.480;7.006;2024-01-30T14:04:56;11.93;;;6.57;;
14268;SDS011;7218;51.480;7.006;2024-01-30T14:07:24;12.48;;;6.28;;
14268;SDS011;7218;51.480;7.006;2024-01-30T14:09:51;14.02;;;6.15;;
14268;SDS011;7218;51.480;7.006;2024-01-30T14:12:17;11.93;;;5.82;;
14268;SDS011;7218;51.480;7.006;2024-01-30T14:14:44;7.53;;;5.57;;
14268;SDS011;7218;51.480;7.006;2024-01-30T14:17:10;13.02;;;6.25;;
14268;SDS011;7218;51.480;7.006;2024-01-30T14:19:37;9.85;;;6.07;;
14268;SDS011;7218;51.480;7.006;2024-01-30T14:22:03;15.45;;;6.15;;
14268;SDS011;7218;51.480;7.006;2024-01-30T14:24:32;9.15;;;5.75;;
14268;SDS011;7218;51.480;7.006;2024-01-30T14:26:58;12.10;;;6.22;;
14268;SDS011;7218;51.480;7.006;2024-01-30T14:29:25;9.25;;;5.68;;
14268;SDS011;7218;51.480;7.006;2024-01-30T14:31:52;9.65;;;6.10;;
14268;SDS011;7218;51.480;7.006;2024-01-30T14:34:20;8.43;;;5.53;;
14268;SDS011;7218;51.480;7.006;2024-01-30T14:36:46;11.00;;;6.45;;
14268;SDS011;7218;51.480;7.006;2024-01-30T14:39:13;10.60;;;6.28;;
14268;SDS011;7218;51.480;7.006;2024-01-30T14:41:41;11.77;;;6.13;;
14268;SDS011;7218;51.480;7.006;2024-01-30T14:44:07;9.82;;;6.10;;
14268;SDS011;7218;51.480;7.006;2024-01-30T14:46:34;10.63;;;5.90;;
14268;SDS011;7218;51.480;7.006;2024-01-30T14:49:00;11.90;;;6.40;;
14268;SDS011;7218;51.480;7.006;2024-01-30T14:51:30;10.23;;;6.55;;
14268;SDS011;7218;51.480;7.006;2024-01-30T14:53:57;8.57;;;6.13;;
14268;SDS011;7218;51.480;7.006;2024-01-30T14:56:24;11.40;;;6.55;;